Terminal Aerodrome Forecast
Issued by NWS Atlanta, GA

Home | Current Version | Previous Version | Text Only | Print | Product List | Glossary On
Versions: 1 2 3 4 5 6 7 8 9 10 11 12 13 14 15 16
000
FTUS42 KFFC 200500
TAFCSG
TAF
KCSG 200520Z 2006/2106 08004KT P6SM SCT060
     FM200900 08007KT 5SM BR OVC015
     FM201500 08010KT P6SM SCT035
     FM201900 09009KT P6SM SCT060
     FM210000 08003KT P6SM SCT250=

USA.gov is the U.S. government's official web portal to all federal, state and local government web resources and services.